sensor_id;sensor_type;location;lat;lon;timestamp;temperature;humidity
15596;DHT22;7898;48.658;9.068;2022-12-07T00:01:34;3.50;99.90
15596;DHT22;7898;48.658;9.068;2022-12-07T00:04:03;3.50;99.90
15596;DHT22;7898;48.658;9.068;2022-12-07T00:06:30;3.50;99.90
15596;DHT22;7898;48.658;9.068;2022-12-07T00:08:58;3.50;99.90
15596;DHT22;7898;48.658;9.068;2022-12-07T00:11:25;3.50;99.90
15596;DHT22;7898;48.658;9.068;2022-12-07T00:13:54;3.50;99.90
15596;DHT22;7898;48.658;9.068;2022-12-07T00:16:24;3.50;99.90
15596;DHT22;7898;48.658;9.068;2022-12-07T00:18:51;3.50;99.90
15596;DHT22;7898;48.658;9.068;2022-12-07T00:21:21;3.50;99.90
15596;DHT22;7898;48.658;9.068;2022-12-07T00:23:49;3.50;99.90
15596;DHT22;7898;48.658;9.068;2022-12-07T00:26:18;3.60;99.90
15596;DHT22;7898;48.658;9.068;2022-12-07T00:28:45;3.50;99.90
15596;DHT22;7898;48.658;9.068;2022-12-07T00:31:16;3.50;99.90
15596;DHT22;7898;48.658;9.068;2022-12-07T00:33:43;3.50;99.90
15596;DHT22;7898;48.658;9.068;2022-12-07T00:36:12;3.50;99.90
15596;DHT22;7898;48.658;9.068;2022-12-07T00:38:40;3.40;99.90
15596;DHT22;7898;48.658;9.068;2022-12-07T00:41:09;3.40;99.90
15596;DHT22;7898;48.658;9.068;2022-12-07T00:43:37;3.30;99.90
15596;DHT22;7898;48.658;9.068;2022-12-07T00:46:04;3.30;99.90
15596;DHT22;7898;48.658;9.068;2022-12-07T00:48:33;3.30;99.90
15596;DHT22;7898;48.658;9.068;2022-12-07T00:51:00;3.30;99.90
15596;DHT22;7898;48.658;9.068;2022-12-07T00:53:27;3.90;99.90
15596;DHT22;7898;48.658;9.068;2022-12-07T00:55:54;3.30;99.90
15596;DHT22;7898;48.658;9.068;2022-12-07T00:58:22;3.30;99.90
15596;DHT22;7898;48.658;9.068;2022-12-07T01:00:50;3.30;99.90
15596;DHT22;7898;48.658;9.068;2022-12-07T01:03:17;3.40;99.90
15596;DHT22;7898;48.658;9.068;2022-12-07T01:05:53;3.30;99.90
15596;DHT22;7898;48.658;9.068;2022-12-07T01:08:20;3.30;99.90
15596;DHT22;7898;48.658;9.068;2022-12-07T01:10:47;3.20;99.90
15596;DHT22;7898;48.658;9.068;2022-12-07T01:13:15;3.20;99.90
15596;DHT22;7898;48.658;9.068;2022-12-07T01:15:43;3.20;99.90
15596;DHT22;7898;48.658;9.068;2022-12-07T01:18:10;3.20;99.90
15596;DHT22;7898;48.658;9.068;2022-12-07T01:20:37;3.20;99.90
15596;DHT22;7898;48.658;9.068;2022-12-07T01:23:06;3.20;99.90
15596;DHT22;7898;48.658;9.068;2022-12-07T01:25:33;3.20;99.90
15596;DHT22;7898;48.658;9.068;2022-12-07T01:27:59;3.20;99.90
15596;DHT22;7898;48.658;9.068;2022-12-07T01:30:26;3.20;99.90
15596;DHT22;7898;48.658;9.068;2022-12-07T01:32:54;3.20;99.90
15596;DHT22;7898;48.658;9.068;2022-12-07T01:35:21;3.20;99.90
15596;DHT22;7898;48.658;9.068;2022-12-07T01:37:48;3.20;99.90
15596;DHT22;7898;48.658;9.068;2022-12-07T01:40:16;3.20;99.90
15596;DHT22;7898;48.658;9.068;2022-12-07T01:42:43;3.20;99.90
15596;DHT22;7898;48.658;9.068;2022-12-07T01:45:38;3.20;99.90
15596;DHT22;7898;48.658;9.068;2022-12-07T01:48:07;3.20;99.90
15596;DHT22;7898;48.658;9.068;2022-12-07T01:50:35;3.20;99.90
15596;DHT22;7898;48.658;9.068;2022-12-07T01:53:04;3.20;99.90
15596;DHT22;7898;48.658;9.068;2022-12-07T01:55:34;3.20;99.90
15596;DHT22;7898;48.658;9.068;2022-12-07T01:58:02;3.30;99.90
15596;DHT22;7898;48.658;9.068;2022-12-07T02:00:30;3.30;99.90
15596;DHT22;7898;48.658;9.068;2022-12-07T02:03:01;3.30;99.90
15596;DHT22;7898;48.658;9.068;2022-12-07T02:05:30;3.30;99.90
15596;DHT22;7898;48.658;9.068;2022-12-07T02:07:58;3.20;99.90
15596;DHT22;7898;48.658;9.068;2022-12-07T02:10:27;3.20;99.90
15596;DHT22;7898;48.658;9.068;2022-12-07T02:12:58;3.10;99.90
15596;DHT22;7898;48.658;9.068;2022-12-07T02:15:31;3.10;99.90
15596;DHT22;7898;48.658;9.068;2022-12-07T02:18:06;3.00;99.90
15596;DHT22;7898;48.658;9.068;2022-12-07T02:20:38;3.00;99.90
15596;DHT22;7898;48.658;9.068;2022-12-07T02:29:31;2.90;99.90
15596;DHT22;7898;48.658;9.068;2022-12-07T02:32:05;2.90;99.90
15596;DHT22;7898;48.658;9.068;2022-12-07T02:34:39;2.90;99.90
15596;DHT22;7898;48.658;9.068;2022-12-07T02:37:13;2.90;99.90
15596;DHT22;7898;48.658;9.068;2022-12-07T02:39:46;2.90;99.90
15596;DHT22;7898;48.658;9.068;2022-12-07T02:42:18;2.90;99.90
15596;DHT22;7898;48.658;9.068;2022-12-07T02:44:49;2.90;99.90
15596;DHT22;7898;48.658;9.068;2022-12-07T02:47:17;2.90;99.90
15596;DHT22;7898;48.658;9.068;2022-12-07T02:49:45;2.90;99.90
15596;DHT22;7898;48.658;9.068;2022-12-07T02:52:12;2.90;99.90
15596;DHT22;7898;48.658;9.068;2022-12-07T02:54:39;2.80;99.90
15596;DHT22;7898;48.658;9.068;2022-12-07T02:57:18;2.80;99.90
15596;DHT22;7898;48.658;9.068;2022-12-07T03:00:00;2.80;99.90
15596;DHT22;7898;48.658;9.068;2022-12-07T03:02:36;2.90;99.90
15596;DHT22;7898;48.658;9.068;2022-12-07T03:05:17;2.90;99.90
15596;DHT22;7898;48.658;9.068;2022-12-07T03:07:56;2.90;99.90
15596;DHT22;7898;48.658;9.068;2022-12-07T03:10:34;2.90;99.90
15596;DHT22;7898;48.658;9.068;2022-12-07T03:13:06;2.90;99.90
15596;DHT22;7898;48.658;9.068;2022-12-07T03:15:42;3.00;99.90
15596;DHT22;7898;48.658;9.068;2022-12-07T03:18:13;2.90;99.90
15596;DHT22;7898;48.658;9.068;2022-12-07T03:20:44;2.90;99.90
15596;DHT22;7898;48.658;9.068;2022-12-07T03:23:13;2.90;99.90
15596;DHT22;7898;48.658;9.068;2022-12-07T03:25:46;2.90;99.90
15596;DHT22;7898;48.658;9.068;2022-12-07T03:28:17;2.90;99.90
15596;DHT22;7898;48.658;9.068;2022-12-07T03:30:50;2.90;99.90
15596;DHT22;7898;48.658;9.068;2022-12-07T03:33:22;2.90;99.90
15596;DHT22;7898;48.658;9.068;2022-12-07T03:35:54;3.00;99.90
15596;DHT22;7898;48.658;9.068;2022-12-07T03:38:28;3.00;99.90
15596;DHT22;7898;48.658;9.068;2022-12-07T03:41:00;3.00;99.90
15596;DHT22;7898;48.658;9.068;2022-12-07T03:43:28;2.90;99.90
15596;DHT22;7898;48.658;9.068;2022-12-07T03:46:01;2.90;99.90
15596;DHT22;7898;48.658;9.068;2022-12-07T03:48:36;2.90;99.90
15596;DHT22;7898;48.658;9.068;2022-12-07T03:51:18;2.90;99.90
15596;DHT22;7898;48.658;9.068;2022-12-07T03:53:50;2.90;99.90
15596;DHT22;7898;48.658;9.068;2022-12-07T03:56:20;2.90;99.90
15596;DHT22;7898;48.658;9.068;2022-12-07T03:58:48;2.90;99.90
15596;DHT22;7898;48.658;9.068;2022-12-07T04:01:17;2.90;99.90
15596;DHT22;7898;48.658;9.068;2022-12-07T04:03:44;2.80;99.90
15596;DHT22;7898;48.658;9.068;2022-12-07T04:06:11;2.80;99.90
15596;DHT22;7898;48.658;9.068;2022-12-07T04:08:38;2.70;99.90
15596;DHT22;7898;48.658;9.068;2022-12-07T04:11:05;2.70;99.90
15596;DHT22;7898;48.658;9.068;2022-12-07T04:13:32;2.70;99.90
15596;DHT22;7898;48.658;9.068;2022-12-07T04:16:21;2.70;99.90
15596;DHT22;7898;48.658;9.068;2022-12-07T04:18:48;2.70;99.90
15596;DHT22;7898;48.658;9.068;2022-12-07T04:21:14;2.80;99.90
15596;DHT22;7898;48.658;9.068;2022-12-07T04:23:41;2.80;99.90
15596;DHT22;7898;48.658;9.068;2022-12-07T04:26:08;2.80;99.90
15596;DHT22;7898;48.658;9.068;2022-12-07T04:28:35;2.70;99.90
15596;DHT22;7898;48.658;9.068;2022-12-07T04:31:02;2.70;99.90
15596;DHT22;7898;48.658;9.068;2022-12-07T04:33:30;2.60;99.90
15596;DHT22;7898;48.658;9.068;2022-12-07T04:35:57;2.60;99.90
15596;DHT22;7898;48.658;9.068;2022-12-07T04:38:24;2.60;99.90
15596;DHT22;7898;48.658;9.068;2022-12-07T04:40:51;2.50;99.90
15596;DHT22;7898;48.658;9.068;2022-12-07T04:43:17;2.50;99.90
15596;DHT22;7898;48.658;9.068;2022-12-07T04:45:46;2.40;99.90
15596;DHT22;7898;48.658;9.068;2022-12-07T04:48:13;2.40;99.90
15596;DHT22;7898;48.658;9.068;2022-12-07T04:50:42;2.40;99.90
15596;DHT22;7898;48.658;9.068;2022-12-07T04:53:08;2.40;99.90
15596;DHT22;7898;48.658;9.068;2022-12-07T04:55:36;2.40;99.90
15596;DHT22;7898;48.658;9.068;2022-12-07T04:58:03;2.30;99.90
15596;DHT22;7898;48.658;9.068;2022-12-07T05:00:30;2.30;99.90
15596;DHT22;7898;48.658;9.068;2022-12-07T05:02:56;2.40;99.90
15596;DHT22;7898;48.658;9.068;2022-12-07T05:05:23;2.30;99.90
15596;DHT22;7898;48.658;9.068;2022-12-07T05:07:52;2.30;99.90
15596;DHT22;7898;48.658;9.068;2022-12-07T05:10:19;2.30;99.90
15596;DHT22;7898;48.658;9.068;2022-12-07T05:12:45;2.20;99.90
15596;DHT22;7898;48.658;9.068;2022-12-07T05:15:13;2.30;99.90
15596;DHT22;7898;48.658;9.068;2022-12-07T05:17:39;2.20;99.90
15596;DHT22;7898;48.658;9.068;2022-12-07T05:20:07;2.20;99.90
15596;DHT22;7898;48.658;9.068;2022-12-07T05:22:34;2.10;99.90
15596;DHT22;7898;48.658;9.068;2022-12-07T05:25:03;2.10;99.90
15596;DHT22;7898;48.658;9.068;2022-12-07T05:27:30;2.10;99.90
15596;DHT22;7898;48.658;9.068;2022-12-07T05:29:57;2.10;99.90
15596;DHT22;7898;48.658;9.068;2022-12-07T05:32:24;2.10;99.90
15596;DHT22;7898;48.658;9.068;2022-12-07T05:34:51;2.10;99.90
15596;DHT22;7898;48.658;9.068;2022-12-07T05:37:20;2.10;99.90
15596;DHT22;7898;48.658;9.068;2022-12-07T05:39:47;2.10;99.90
15596;DHT22;7898;48.658;9.068;2022-12-07T05:42:15;2.10;99.90
15596;DHT22;7898;48.658;9.068;2022-12-07T05:44:43;2.10;99.90
15596;DHT22;7898;48.658;9.068;2022-12-07T05:47:11;1.90;99.90
15596;DHT22;7898;48.658;9.068;2022-12-07T05:49:38;1.80;99.90
15596;DHT22;7898;48.658;9.068;2022-12-07T05:52:05;1.70;99.90
15596;DHT22;7898;48.658;9.068;2022-12-07T05:54:33;1.80;99.90
15596;DHT22;7898;48.658;9.068;2022-12-07T05:57:00;1.60;99.90
15596;DHT22;7898;48.658;9.068;2022-12-07T05:59:28;1.60;99.90
15596;DHT22;7898;48.658;9.068;2022-12-07T06:01:56;1.70;99.90
15596;DHT22;7898;48.658;9.068;2022-12-07T06:04:24;1.60;99.90
15596;DHT22;7898;48.658;9.068;2022-12-07T06:06:52;1.60;99.90
15596;DHT22;7898;48.658;9.068;2022-12-07T06:09:20;1.40;99.90
15596;DHT22;7898;48.658;9.068;2022-12-07T06:11:47;1.30;99.90
15596;DHT22;7898;48.658;9.068;2022-12-07T06:14:33;1.30;99.90
15596;DHT22;7898;48.658;9.068;2022-12-07T06:17:00;1.30;99.90
15596;DHT22;7898;48.658;9.068;2022-12-07T06:19:27;1.30;99.90
15596;DHT22;7898;48.658;9.068;2022-12-07T06:21:54;1.20;99.90
15596;DHT22;7898;48.658;9.068;2022-12-07T06:24:21;1.30;99.90
15596;DHT22;7898;48.658;9.068;2022-12-07T06:26:48;1.30;99.90
15596;DHT22;7898;48.658;9.068;2022-12-07T06:29:16;1.40;99.90
15596;DHT22;7898;48.658;9.068;2022-12-07T06:31:45;1.50;99.90
15596;DHT22;7898;48.658;9.068;2022-12-07T06:34:14;1.50;99.90
15596;DHT22;7898;48.658;9.068;2022-12-07T06:36:41;1.60;99.90
15596;DHT22;7898;48.658;9.068;2022-12-07T06:39:08;1.60;99.90
15596;DHT22;7898;48.658;9.068;2022-12-07T06:41:35;1.80;99.90
15596;DHT22;7898;48.658;9.068;2022-12-07T06:44:03;1.50;99.90
15596;DHT22;7898;48.658;9.068;2022-12-07T06:46:30;1.50;99.90
15596;DHT22;7898;48.658;9.068;2022-12-07T06:48:58;1.60;99.90
15596;DHT22;7898;48.658;9.068;2022-12-07T06:51:26;1.60;99.90
15596;DHT22;7898;48.658;9.068;2022-12-07T06:53:53;1.60;99.90
15596;DHT22;7898;48.658;9.068;2022-12-07T06:56:19;1.70;99.90
15596;DHT22;7898;48.658;9.068;2022-12-07T06:58:46;1.70;99.90
15596;DHT22;7898;48.658;9.068;2022-12-07T07:01:15;1.70;99.90
15596;DHT22;7898;48.658;9.068;2022-12-07T07:03:44;2.60;99.90
15596;DHT22;7898;48.658;9.068;2022-12-07T07:06:13;1.60;99.90
15596;DHT22;7898;48.658;9.068;2022-12-07T07:08:40;1.60;99.90
15596;DHT22;7898;48.658;9.068;2022-12-07T07:11:08;1.60;99.90
15596;DHT22;7898;48.658;9.068;2022-12-07T07:13:35;1.70;99.90
15596;DHT22;7898;48.658;9.068;2022-12-07T07:16:03;1.70;99.90
15596;DHT22;7898;48.658;9.068;2022-12-07T07:18:30;1.60;99.90
15596;DHT22;7898;48.658;9.068;2022-12-07T07:20:57;1.60;99.90
15596;DHT22;7898;48.658;9.068;2022-12-07T07:23:25;1.60;99.90
15596;DHT22;7898;48.658;9.068;2022-12-07T07:25:52;1.50;99.90
15596;DHT22;7898;48.658;9.068;2022-12-07T07:28:19;1.50;99.90
15596;DHT22;7898;48.658;9.068;2022-12-07T07:30:47;1.50;99.90
15596;DHT22;7898;48.658;9.068;2022-12-07T07:33:14;1.60;99.90
15596;DHT22;7898;48.658;9.068;2022-12-07T07:35:41;1.50;99.90
15596;DHT22;7898;48.658;9.068;2022-12-07T07:38:08;1.50;99.90
15596;DHT22;7898;48.658;9.068;2022-12-07T07:40:36;1.50;99.90
15596;DHT22;7898;48.658;9.068;2022-12-07T07:43:03;1.50;99.90
15596;DHT22;7898;48.658;9.068;2022-12-07T07:45:30;1.60;99.90
15596;DHT22;7898;48.658;9.068;2022-12-07T07:47:57;1.70;99.90
15596;DHT22;7898;48.658;9.068;2022-12-07T07:50:23;1.70;99.90
15596;DHT22;7898;48.658;9.068;2022-12-07T07:52:51;1.80;99.90
15596;DHT22;7898;48.658;9.068;2022-12-07T07:55:17;1.80;99.90
15596;DHT22;7898;48.658;9.068;2022-12-07T07:57:46;1.80;99.90
15596;DHT22;7898;48.658;9.068;2022-12-07T08:00:14;1.80;99.90
15596;DHT22;7898;48.658;9.068;2022-12-07T08:02:42;1.90;99.90
15596;DHT22;7898;48.658;9.068;2022-12-07T08:05:09;1.80;99.90
15596;DHT22;7898;48.658;9.068;2022-12-07T08:07:37;1.80;99.90
15596;DHT22;7898;48.658;9.068;2022-12-07T08:10:05;1.80;99.90
15596;DHT22;7898;48.658;9.068;2022-12-07T08:12:35;1.90;99.90
15596;DHT22;7898;48.658;9.068;2022-12-07T08:15:05;2.20;99.90
15596;DHT22;7898;48.658;9.068;2022-12-07T08:17:33;2.10;99.90
15596;DHT22;7898;48.658;9.068;2022-12-07T08:19:59;2.30;99.90
15596;DHT22;7898;48.658;9.068;2022-12-07T08:22:26;2.30;99.90
15596;DHT22;7898;48.658;9.068;2022-12-07T08:24:53;2.20;99.90
15596;DHT22;7898;48.658;9.068;2022-12-07T08:27:20;2.30;99.90
15596;DHT22;7898;48.658;9.068;2022-12-07T08:29:52;2.30;99.90
15596;DHT22;7898;48.658;9.068;2022-12-07T08:32:20;2.30;99.90
15596;DHT22;7898;48.658;9.068;2022-12-07T08:34:47;2.40;99.90
15596;DHT22;7898;48.658;9.068;2022-12-07T08:37:14;2.40;99.90
15596;DHT22;7898;48.658;9.068;2022-12-07T08:39:41;2.60;99.90
15596;DHT22;7898;48.658;9.068;2022-12-07T08:42:08;2.60;99.90
15596;DHT22;7898;48.658;9.068;2022-12-07T08:44:35;2.70;99.90
15596;DHT22;7898;48.658;9.068;2022-12-07T08:47:04;2.80;99.90
15596;DHT22;7898;48.658;9.068;2022-12-07T08:49:36;2.90;99.90
15596;DHT22;7898;48.658;9.068;2022-12-07T08:52:05;3.00;99.90
15596;DHT22;7898;48.658;9.068;2022-12-07T08:54:34;3.00;99.90
15596;DHT22;7898;48.658;9.068;2022-12-07T08:57:02;3.00;99.90
15596;DHT22;7898;48.658;9.068;2022-12-07T08:59:30;3.10;99.90
15596;DHT22;7898;48.658;9.068;2022-12-07T09:01:57;3.10;99.90
15596;DHT22;7898;48.658;9.068;2022-12-07T09:04:24;3.20;99.90
15596;DHT22;7898;48.658;9.068;2022-12-07T09:06:53;3.20;99.90
15596;DHT22;7898;48.658;9.068;2022-12-07T09:09:20;3.30;99.90
15596;DHT22;7898;48.658;9.068;2022-12-07T09:11:47;3.40;99.90
15596;DHT22;7898;48.658;9.068;2022-12-07T09:14:14;3.50;99.90
15596;DHT22;7898;48.658;9.068;2022-12-07T09:16:42;3.60;99.90
15596;DHT22;7898;48.658;9.068;2022-12-07T09:19:09;3.60;99.90
15596;DHT22;7898;48.658;9.068;2022-12-07T09:21:36;3.60;99.90
15596;DHT22;7898;48.658;9.068;2022-12-07T09:24:05;3.70;99.90
15596;DHT22;7898;48.658;9.068;2022-12-07T09:29:01;3.90;99.90
15596;DHT22;7898;48.658;9.068;2022-12-07T09:31:28;3.90;99.90
15596;DHT22;7898;48.658;9.068;2022-12-07T09:33:56;3.90;99.90
15596;DHT22;7898;48.658;9.068;2022-12-07T09:36:23;4.00;99.90
15596;DHT22;7898;48.658;9.068;2022-12-07T09:38:50;4.10;99.90
15596;DHT22;7898;48.658;9.068;2022-12-07T09:41:19;4.10;99.90
15596;DHT22;7898;48.658;9.068;2022-12-07T09:43:47;4.10;99.90
15596;DHT22;7898;48.658;9.068;2022-12-07T09:46:16;4.20;99.90
15596;DHT22;7898;48.658;9.068;2022-12-07T09:48:47;4.20;99.90
15596;DHT22;7898;48.658;9.068;2022-12-07T09:51:17;4.30;99.90
15596;DHT22;7898;48.658;9.068;2022-12-07T09:53:45;4.30;99.90
15596;DHT22;7898;48.658;9.068;2022-12-07T09:56:13;4.30;99.90
15596;DHT22;7898;48.658;9.068;2022-12-07T09:58:42;4.30;99.90
15596;DHT22;7898;48.658;9.068;2022-12-07T10:01:12;4.80;99.90
15596;DHT22;7898;48.658;9.068;2022-12-07T10:03:43;4.20;99.90
15596;DHT22;7898;48.658;9.068;2022-12-07T10:06:12;4.30;99.90
15596;DHT22;7898;48.658;9.068;2022-12-07T10:08:40;4.30;99.90
15596;DHT22;7898;48.658;9.068;2022-12-07T10:11:09;4.30;99.90
15596;DHT22;7898;48.658;9.068;2022-12-07T10:13:38;4.30;99.90
15596;DHT22;7898;48.658;9.068;2022-12-07T10:16:32;4.40;99.90
15596;DHT22;7898;48.658;9.068;2022-12-07T10:19:19;4.40;99.90
15596;DHT22;7898;48.658;9.068;2022-12-07T10:22:04;4.40;99.90
15596;DHT22;7898;48.658;9.068;2022-12-07T10:24:32;4.40;99.90
15596;DHT22;7898;48.658;9.068;2022-12-07T10:26:59;4.40;99.90
15596;DHT22;7898;48.658;9.068;2022-12-07T10:29:30;4.50;99.90
15596;DHT22;7898;48.658;9.068;2022-12-07T10:32:01;4.50;99.90
15596;DHT22;7898;48.658;9.068;2022-12-07T10:34:30;4.60;99.90
15596;DHT22;7898;48.658;9.068;2022-12-07T10:37:14;4.60;99.90
15596;DHT22;7898;48.658;9.068;2022-12-07T10:39:44;4.70;99.90
15596;DHT22;7898;48.658;9.068;2022-12-07T10:42:18;4.80;99.90
15596;DHT22;7898;48.658;9.068;2022-12-07T10:44:46;4.80;99.90
15596;DHT22;7898;48.658;9.068;2022-12-07T10:47:28;4.80;99.90
15596;DHT22;7898;48.658;9.068;2022-12-07T10:50:14;4.80;99.90
15596;DHT22;7898;48.658;9.068;2022-12-07T10:53:02;4.90;99.90
15596;DHT22;7898;48.658;9.068;2022-12-07T10:55:43;4.90;99.90
15596;DHT22;7898;48.658;9.068;2022-12-07T11:01:15;4.70;99.90
15596;DHT22;7898;48.658;9.068;2022-12-07T11:04:03;4.80;99.90
15596;DHT22;7898;48.658;9.068;2022-12-07T11:06:37;4.80;99.90
15596;DHT22;7898;48.658;9.068;2022-12-07T11:09:23;4.80;99.90
15596;DHT22;7898;48.658;9.068;2022-12-07T11:12:01;4.80;99.90
15596;DHT22;7898;48.658;9.068;2022-12-07T11:14:40;4.80;99.90
15596;DHT22;7898;48.658;9.068;2022-12-07T11:17:13;4.80;99.90
15596;DHT22;7898;48.658;9.068;2022-12-07T11:19:54;4.80;99.90
15596;DHT22;7898;48.658;9.068;2022-12-07T11:22:34;4.80;99.90
15596;DHT22;7898;48.658;9.068;2022-12-07T11:25:18;4.80;99.90
15596;DHT22;7898;48.658;9.068;2022-12-07T11:27:51;4.90;99.90
15596;DHT22;7898;48.658;9.068;2022-12-07T11:30:24;4.80;99.90
15596;DHT22;7898;48.658;9.068;2022-12-07T11:33:09;4.80;99.90
15596;DHT22;7898;48.658;9.068;2022-12-07T11:35:49;4.80;99.90
15596;DHT22;7898;48.658;9.068;2022-12-07T11:38:23;4.90;99.90
15596;DHT22;7898;48.658;9.068;2022-12-07T11:40:56;4.90;99.90
15596;DHT22;7898;48.658;9.068;2022-12-07T11:43:40;4.90;99.90
15596;DHT22;7898;48.658;9.068;2022-12-07T11:46:12;4.80;99.90
15596;DHT22;7898;48.658;9.068;2022-12-07T11:48:44;4.80;99.90
15596;DHT22;7898;48.658;9.068;2022-12-07T11:51:15;4.90;99.90
15596;DHT22;7898;48.658;9.068;2022-12-07T11:53:46;4.90;99.90
15596;DHT22;7898;48.658;9.068;2022-12-07T11:56:16;4.90;99.90
15596;DHT22;7898;48.658;9.068;2022-12-07T11:58:48;5.00;99.90
15596;DHT22;7898;48.658;9.068;2022-12-07T12:01:25;5.00;99.90
15596;DHT22;7898;48.658;9.068;2022-12-07T12:03:58;5.10;99.90
15596;DHT22;7898;48.658;9.068;2022-12-07T12:06:28;5.10;99.90
15596;DHT22;7898;48.658;9.068;2022-12-07T12:08:59;5.10;99.90
15596;DHT22;7898;48.658;9.068;2022-12-07T12:11:41;5.20;99.90
15596;DHT22;7898;48.658;9.068;2022-12-07T12:14:31;5.10;99.90
15596;DHT22;7898;48.658;9.068;2022-12-07T12:20:13;5.20;99.90
15596;DHT22;7898;48.658;9.068;2022-12-07T12:22:46;5.10;99.90
15596;DHT22;7898;48.658;9.068;2022-12-07T12:25:20;4.90;99.90
15596;DHT22;7898;48.658;9.068;2022-12-07T12:27:48;4.90;99.90
15596;DHT22;7898;48.658;9.068;2022-12-07T12:30:34;4.90;99.90
15596;DHT22;7898;48.658;9.068;2022-12-07T12:33:04;4.80;99.90
15596;DHT22;7898;48.658;9.068;2022-12-07T12:35:34;4.80;99.90
15596;DHT22;7898;48.658;9.068;2022-12-07T12:38:26;4.80;99.90
15596;DHT22;7898;48.658;9.068;2022-12-07T12:40:54;4.80;99.90
15596;DHT22;7898;48.658;9.068;2022-12-07T12:43:50;4.80;99.90
15596;DHT22;7898;48.658;9.068;2022-12-07T12:46:52;4.70;99.90
15596;DHT22;7898;48.658;9.068;2022-12-07T12:49:43;4.70;99.90
15596;DHT22;7898;48.658;9.068;2022-12-07T12:55:21;4.60;99.90
15596;DHT22;7898;48.658;9.068;2022-12-07T12:58:34;4.70;99.90
15596;DHT22;7898;48.658;9.068;2022-12-07T13:01:36;4.70;99.90
15596;DHT22;7898;48.658;9.068;2022-12-07T13:06:58;4.80;99.90
15596;DHT22;7898;48.658;9.068;2022-12-07T13:09:28;4.80;99.90
15596;DHT22;7898;48.658;9.068;2022-12-07T13:12:02;4.80;99.90
15596;DHT22;7898;48.658;9.068;2022-12-07T13:17:57;4.80;99.90
15596;DHT22;7898;48.658;9.068;2022-12-07T13:20:49;4.80;99.90
15596;DHT22;7898;48.658;9.068;2022-12-07T13:23:19;4.80;99.90
15596;DHT22;7898;48.658;9.068;2022-12-07T13:26:13;4.90;99.90
15596;DHT22;7898;48.658;9.068;2022-12-07T13:28:45;4.80;99.90
15596;DHT22;7898;48.658;9.068;2022-12-07T13:31:19;4.90;99.90
15596;DHT22;7898;48.658;9.068;2022-12-07T13:33:47;4.90;99.90
15596;DHT22;7898;48.658;9.068;2022-12-07T13:36:20;4.80;99.90
15596;DHT22;7898;48.658;9.068;2022-12-07T13:38:55;4.80;99.90
15596;DHT22;7898;48.658;9.068;2022-12-07T13:41:23;4.90;99.90
15596;DHT22;7898;48.658;9.068;2022-12-07T13:43:59;4.90;99.90
15596;DHT22;7898;48.658;9.068;2022-12-07T13:46:33;4.90;99.90
15596;DHT22;7898;48.658;9.068;2022-12-07T13:49:02;4.90;99.90
15596;DHT22;7898;48.658;9.068;2022-12-07T13:51:41;5.00;99.90
15596;DHT22;7898;48.658;9.068;2022-12-07T13:54:12;5.00;99.90
15596;DHT22;7898;48.658;9.068;2022-12-07T13:56:40;5.10;99.90
15596;DHT22;7898;48.658;9.068;2022-12-07T13:59:14;5.10;99.90
15596;DHT22;7898;48.658;9.068;2022-12-07T14:01:41;5.20;99.90
15596;DHT22;7898;48.658;9.068;2022-12-07T14:04:19;5.10;99.90
15596;DHT22;7898;48.658;9.068;2022-12-07T14:06:54;5.10;99.90
15596;DHT22;7898;48.658;9.068;2022-12-07T14:09:22;5.10;99.90
15596;DHT22;7898;48.658;9.068;2022-12-07T14:11:51;5.10;99.90
15596;DHT22;7898;48.658;9.068;2022-12-07T14:14:22;5.00;99.90
15596;DHT22;7898;48.658;9.068;2022-12-07T14:16:56;5.00;99.90
15596;DHT22;7898;48.658;9.068;2022-12-07T14:19:47;5.00;99.90
15596;DHT22;7898;48.658;9.068;2022-12-07T14:22:23;4.90;99.90
15596;DHT22;7898;48.658;9.068;2022-12-07T14:24:50;4.90;99.90
15596;DHT22;7898;48.658;9.068;2022-12-07T14:27:19;4.90;99.90
15596;DHT22;7898;48.658;9.068;2022-12-07T14:29:47;5.70;99.90
15596;DHT22;7898;48.658;9.068;2022-12-07T14:32:20;4.80;99.90
15596;DHT22;7898;48.658;9.068;2022-12-07T14:34:55;4.80;99.90
15596;DHT22;7898;48.658;9.068;2022-12-07T14:37:23;4.60;99.90
15596;DHT22;7898;48.658;9.068;2022-12-07T14:39:50;4.70;99.90
15596;DHT22;7898;48.658;9.068;2022-12-07T14:42:17;4.60;99.90
15596;DHT22;7898;48.658;9.068;2022-12-07T14:44:44;4.60;99.90
15596;DHT22;7898;48.658;9.068;2022-12-07T14:47:12;4.60;99.90
15596;DHT22;7898;48.658;9.068;2022-12-07T14:49:39;4.60;99.90
15596;DHT22;7898;48.658;9.068;2022-12-07T14:52:13;4.70;99.90
15596;DHT22;7898;48.658;9.068;2022-12-07T14:54:41;4.50;99.90
15596;DHT22;7898;48.658;9.068;2022-12-07T14:57:08;4.50;99.90
15596;DHT22;7898;48.658;9.068;2022-12-07T14:59:36;4.40;99.90
15596;DHT22;7898;48.658;9.068;2022-12-07T15:02:03;4.30;99.90
15596;DHT22;7898;48.658;9.068;2022-12-07T15:04:31;4.30;99.90
15596;DHT22;7898;48.658;9.068;2022-12-07T15:06:59;4.20;99.90
15596;DHT22;7898;48.658;9.068;2022-12-07T15:09:26;4.20;99.90
15596;DHT22;7898;48.658;9.068;2022-12-07T15:11:53;4.20;99.90
15596;DHT22;7898;48.658;9.068;2022-12-07T15:14:20;4.10;99.90
15596;DHT22;7898;48.658;9.068;2022-12-07T15:16:47;4.00;99.90
15596;DHT22;7898;48.658;9.068;2022-12-07T15:19:15;4.00;99.90
15596;DHT22;7898;48.658;9.068;2022-12-07T15:21:44;4.00;99.90
15596;DHT22;7898;48.658;9.068;2022-12-07T15:24:11;4.00;99.90
15596;DHT22;7898;48.658;9.068;2022-12-07T15:26:39;4.00;99.90
15596;DHT22;7898;48.658;9.068;2022-12-07T15:29:07;4.00;99.90
15596;DHT22;7898;48.658;9.068;2022-12-07T15:31:34;4.00;99.90
15596;DHT22;7898;48.658;9.068;2022-12-07T15:34:02;4.00;99.90
15596;DHT22;7898;48.658;9.068;2022-12-07T15:36:30;3.90;99.90
15596;DHT22;7898;48.658;9.068;2022-12-07T15:38:59;3.90;99.90
15596;DHT22;7898;48.658;9.068;2022-12-07T15:41:26;3.90;99.90
15596;DHT22;7898;48.658;9.068;2022-12-07T15:43:53;3.80;99.90
15596;DHT22;7898;48.658;9.068;2022-12-07T15:46:39;3.80;99.90
15596;DHT22;7898;48.658;9.068;2022-12-07T15:49:10;3.80;99.90
15596;DHT22;7898;48.658;9.068;2022-12-07T15:51:37;3.70;99.90
15596;DHT22;7898;48.658;9.068;2022-12-07T15:54:05;3.80;99.90
15596;DHT22;7898;48.658;9.068;2022-12-07T15:56:32;3.80;99.90
15596;DHT22;7898;48.658;9.068;2022-12-07T15:58:59;3.80;99.90
15596;DHT22;7898;48.658;9.068;2022-12-07T16:01:26;3.80;99.90
15596;DHT22;7898;48.658;9.068;2022-12-07T16:03:53;3.80;99.90
15596;DHT22;7898;48.658;9.068;2022-12-07T16:06:20;3.80;99.90
15596;DHT22;7898;48.658;9.068;2022-12-07T16:08:47;3.90;99.90
15596;DHT22;7898;48.658;9.068;2022-12-07T16:11:15;3.90;99.90
15596;DHT22;7898;48.658;9.068;2022-12-07T16:13:42;3.80;99.90
15596;DHT22;7898;48.658;9.068;2022-12-07T16:16:11;3.80;99.90
15596;DHT22;7898;48.658;9.068;2022-12-07T16:18:38;3.80;99.90
15596;DHT22;7898;48.658;9.068;2022-12-07T16:21:06;3.70;99.90
15596;DHT22;7898;48.658;9.068;2022-12-07T16:23:33;3.70;99.90
15596;DHT22;7898;48.658;9.068;2022-12-07T16:26:07;3.70;99.90
15596;DHT22;7898;48.658;9.068;2022-12-07T16:28:35;3.60;99.90
15596;DHT22;7898;48.658;9.068;2022-12-07T16:31:03;3.60;99.90
15596;DHT22;7898;48.658;9.068;2022-12-07T16:33:33;3.60;99.90
15596;DHT22;7898;48.658;9.068;2022-12-07T16:36:00;3.60;99.90
15596;DHT22;7898;48.658;9.068;2022-12-07T16:38:27;3.50;99.90
15596;DHT22;7898;48.658;9.068;2022-12-07T16:40:54;3.50;99.90
15596;DHT22;7898;48.658;9.068;2022-12-07T16:43:21;3.40;99.90
15596;DHT22;7898;48.658;9.068;2022-12-07T16:45:50;3.40;99.90
15596;DHT22;7898;48.658;9.068;2022-12-07T16:48:17;3.40;99.90